createdAt,value
2023-01-29T00:00:12.229Z,9.45
2023-01-29T00:02:38.837Z,7.53
2023-01-29T00:05:25.422Z,7.72
2023-01-29T00:07:53.005Z,8.07
2023-01-29T00:10:19.369Z,7.30
2023-01-29T00:12:45.775Z,9.20
2023-01-29T00:15:12.152Z,7.43
2023-01-29T00:17:38.477Z,8.88
2023-01-29T00:20:05.242Z,7.47
2023-01-29T00:22:31.594Z,8.23
2023-01-29T00:24:58.167Z,11.65
2023-01-29T00:27:24.470Z,7.75
2023-01-29T00:30:09.103Z,8.10
2023-01-29T00:32:36.078Z,10.80
2023-01-29T00:35:02.637Z,9.20
2023-01-29T00:37:28.981Z,8.25
2023-01-29T00:39:55.293Z,6.72
2023-01-29T00:42:40.434Z,7.63
2023-01-29T00:45:07.362Z,7.05
2023-01-29T00:47:34.007Z,7.03
2023-01-29T00:50:01.639Z,7.00
2023-01-29T00:52:28.151Z,8.93
2023-01-29T00:55:00.211Z,8.90
2023-01-29T00:57:28.254Z,8.18
2023-01-29T00:59:54.695Z,8.95
2023-01-29T01:02:40.185Z,6.30
2023-01-29T01:05:10.256Z,7.78
2023-01-29T01:07:36.566Z,7.22
2023-01-29T01:10:21.180Z,6.90
2023-01-29T01:12:54.706Z,9.18
2023-01-29T01:15:22.652Z,7.15
2023-01-29T01:17:55.605Z,8.27
2023-01-29T01:20:23.037Z,10.02
2023-01-29T01:22:49.777Z,10.65
2023-01-29T01:25:17.479Z,7.78
2023-01-29T01:27:43.816Z,7.25
2023-01-29T01:30:16.112Z,8.27
2023-01-29T01:32:43.061Z,6.20
2023-01-29T01:35:10.875Z,6.22
2023-01-29T01:37:38.539Z,7.13
2023-01-29T01:40:12.683Z,7.85
2023-01-29T01:42:40.293Z,7.78
2023-01-29T01:45:24.917Z,8.90
2023-01-29T01:48:04.404Z,7.15
2023-01-29T01:50:43.150Z,8.75
2023-01-29T01:53:13.015Z,7.60
2023-01-29T01:55:48.507Z,8.10
2023-01-29T01:58:21.326Z,8.07
2023-01-29T02:00:47.841Z,8.70
2023-01-29T02:03:33.647Z,9.52
2023-01-29T02:06:19.326Z,7.53
2023-01-29T02:09:20.639Z,8.55
2023-01-29T02:11:46.971Z,8.85
2023-01-29T02:14:13.341Z,10.07
2023-01-29T02:16:39.688Z,7.55
2023-01-29T02:19:16.416Z,7.18
2023-01-29T02:22:03.833Z,9.65
2023-01-29T02:24:48.671Z,9.15
2023-01-29T02:27:21.930Z,9.45
2023-01-29T02:30:13.577Z,9.10
2023-01-29T02:32:54.581Z,8.52
2023-01-29T02:35:39.954Z,8.15
2023-01-29T02:38:27.754Z,9.05
2023-01-29T02:41:01.699Z,9.32
2023-01-29T02:43:38.613Z,9.95
2023-01-29T02:46:30.771Z,10.90
2023-01-29T02:49:04.825Z,7.60
2023-01-29T02:51:42.397Z,8.20
2023-01-29T02:54:34.922Z,7.03
2023-01-29T02:57:08.122Z,7.97
2023-01-29T02:59:41.942Z,9.32
2023-01-29T03:02:13.751Z,9.20
2023-01-29T03:04:46.495Z,8.75
2023-01-29T03:07:37.953Z,9.10
2023-01-29T03:10:16.835Z,9.70
2023-01-29T03:12:45.737Z,8.90
2023-01-29T03:15:17.839Z,8.15
2023-01-29T03:17:49.241Z,7.82
2023-01-29T03:20:22.550Z,7.90
2023-01-29T03:22:55.918Z,7.80
2023-01-29T03:25:45.928Z,7.82
2023-01-29T03:28:35.030Z,8.05
2023-01-29T03:31:24.751Z,8.38
2023-01-29T03:34:16.351Z,7.70
2023-01-29T03:36:55.697Z,7.97
2023-01-29T03:39:24.227Z,8.88
2023-01-29T03:41:58.063Z,8.15
2023-01-29T03:44:56.601Z,8.20
2023-01-29T03:47:33.146Z,9.95
2023-01-29T03:50:07.118Z,11.45
2023-01-29T03:52:59.280Z,9.85
2023-01-29T03:55:43.334Z,9.70
2023-01-29T03:58:36.694Z,8.88
2023-01-29T04:01:05.297Z,7.78
2023-01-29T04:04:07.321Z,8.13
2023-01-29T04:06:37.617Z,7.90
2023-01-29T04:09:10.634Z,8.13
2023-01-29T04:11:40.938Z,9.23
2023-01-29T04:14:08.275Z,8.07
2023-01-29T04:16:42.125Z,10.25
2023-01-29T04:19:08.544Z,10.27
2023-01-29T04:21:37.430Z,10.25
2023-01-29T04:24:06.175Z,9.63
2023-01-29T04:27:03.517Z,12.80
2023-01-29T04:29:33.019Z,12.82
2023-01-29T04:32:38.776Z,11.68
2023-01-29T04:35:26.133Z,9.02
2023-01-29T04:38:23.374Z,8.25
2023-01-29T04:40:59.940Z,8.27
2023-01-29T04:43:34.111Z,8.15
2023-01-29T04:46:21.196Z,9.68
2023-01-29T04:49:18.642Z,9.95
2023-01-29T04:51:57.150Z,10.38
2023-01-29T04:54:45.391Z,11.15
2023-01-29T04:57:23.083Z,9.98
2023-01-29T04:59:57.513Z,11.50
2023-01-29T05:02:26.617Z,10.25
2023-01-29T05:04:54.835Z,10.02
2023-01-29T05:07:23.288Z,11.90
2023-01-29T05:09:50.821Z,11.43
2023-01-29T05:12:18.445Z,11.30
2023-01-29T05:14:46.943Z,10.85
2023-01-29T05:17:20.197Z,11.50
2023-01-29T05:19:47.207Z,12.88
2023-01-29T05:22:17.228Z,10.50
2023-01-29T05:24:44.451Z,10.57
2023-01-29T05:27:36.755Z,11.50
2023-01-29T05:30:03.789Z,11.35
2023-01-29T05:32:30.287Z,10.65
2023-01-29T05:34:56.597Z,8.73
2023-01-29T05:37:23.209Z,8.68
2023-01-29T05:39:49.589Z,7.75
2023-01-29T05:42:15.928Z,9.73
2023-01-29T05:44:42.342Z,9.93
2023-01-29T05:47:08.663Z,11.93
2023-01-29T05:49:35.729Z,12.48
2023-01-29T05:52:03.107Z,12.25
2023-01-29T05:54:29.524Z,11.35
2023-01-29T05:56:56.024Z,11.77
2023-01-29T05:59:22.522Z,12.20
2023-01-29T06:01:48.876Z,15.45
2023-01-29T06:04:15.226Z,10.00
2023-01-29T06:06:41.632Z,8.80
2023-01-29T06:09:10.406Z,8.80
2023-01-29T06:11:40.544Z,9.15
2023-01-29T06:14:06.948Z,10.20
2023-01-29T06:16:33.528Z,11.27
2023-01-29T06:18:59.947Z,10.95
2023-01-29T06:21:26.301Z,8.25
2023-01-29T06:23:53.711Z,9.13
2023-01-29T06:26:20.118Z,12.60
2023-01-29T06:28:49.467Z,13.55
2023-01-29T06:31:33.128Z,10.38
2023-01-29T06:34:02.169Z,11.10
2023-01-29T06:36:28.484Z,15.38
2023-01-29T06:38:54.819Z,12.55
2023-01-29T06:41:25.310Z,10.95
2023-01-29T06:43:51.932Z,11.88
2023-01-29T06:46:18.269Z,11.57
2023-01-29T06:48:44.604Z,9.68
2023-01-29T06:51:11.175Z,11.70
2023-01-29T06:53:39.306Z,11.57
2023-01-29T06:56:06.754Z,10.85
2023-01-29T06:58:33.525Z,11.13
2023-01-29T07:01:04.856Z,8.93
2023-01-29T07:03:31.268Z,8.95
2023-01-29T07:05:57.730Z,7.95
2023-01-29T07:08:24.072Z,8.13
2023-01-29T07:10:51.362Z,8.45
2023-01-29T07:13:17.718Z,8.00
2023-01-29T07:15:44.539Z,8.93
2023-01-29T07:18:13.768Z,9.38
2023-01-29T07:20:41.130Z,8.20
2023-01-29T07:23:10.684Z,9.55
2023-01-29T07:25:37.374Z,8.55
2023-01-29T07:28:04.072Z,10.43
2023-01-29T07:30:30.634Z,11.02
2023-01-29T07:33:07.161Z,17.95
2023-01-29T07:35:40.884Z,14.48
2023-01-29T07:38:11.117Z,28.17
2023-01-29T07:40:37.709Z,43.75
2023-01-29T07:43:06.586Z,25.33
2023-01-29T07:45:35.445Z,27.60
2023-01-29T07:48:04.081Z,22.95
2023-01-29T07:50:31.324Z,10.00
2023-01-29T07:52:58.749Z,8.35
2023-01-29T07:55:25.112Z,8.88
2023-01-29T07:57:58.293Z,49.58
2023-01-29T08:00:24.901Z,71.30
2023-01-29T08:02:51.463Z,70.18
2023-01-29T08:05:18.007Z,63.10
2023-01-29T08:07:49.243Z,15.80
2023-01-29T08:10:20.673Z,13.82
2023-01-29T08:12:47.247Z,13.48
2023-01-29T08:15:13.564Z,16.13
2023-01-29T08:17:56.068Z,12.98
2023-01-29T08:20:24.007Z,11.70
2023-01-29T08:22:50.327Z,12.10
2023-01-29T08:25:16.703Z,15.60
2023-01-29T08:27:43.072Z,12.98
2023-01-29T08:30:10.363Z,12.43
2023-01-29T08:32:36.706Z,14.82
2023-01-29T08:35:03.123Z,13.70
2023-01-29T08:37:29.603Z,12.57
2023-01-29T08:39:55.990Z,13.43
2023-01-29T08:42:22.331Z,12.35
2023-01-29T08:44:48.655Z,12.73
2023-01-29T08:47:15.178Z,13.18
2023-01-29T08:49:42.083Z,13.85
2023-01-29T08:52:08.485Z,11.93
2023-01-29T08:54:35.115Z,13.48
2023-01-29T08:57:01.511Z,11.73
2023-01-29T08:59:27.938Z,10.82
2023-01-29T09:01:54.358Z,10.43
2023-01-29T09:04:20.688Z,10.32
2023-01-29T09:06:47.103Z,10.38
2023-01-29T09:09:14.382Z,11.40
2023-01-29T09:11:40.979Z,14.05
2023-01-29T09:14:07.385Z,14.45
2023-01-29T09:16:33.718Z,13.35
2023-01-29T09:19:00.085Z,11.40
2023-01-29T09:21:26.498Z,13.20
2023-01-29T09:23:55.358Z,14.60
2023-01-29T09:26:21.703Z,14.45
2023-01-29T09:28:48.131Z,17.38
2023-01-29T09:31:14.744Z,16.40
2023-01-29T09:33:41.422Z,15.02
2023-01-29T09:36:08.194Z,16.60
2023-01-29T09:38:34.591Z,14.95
2023-01-29T09:41:22.323Z,14.10
2023-01-29T09:43:57.751Z,15.55
2023-01-29T09:46:40.396Z,14.80
2023-01-29T09:49:24.445Z,13.25
2023-01-29T09:52:02.993Z,13.82
2023-01-29T09:54:54.890Z,15.07
2023-01-29T09:57:44.280Z,13.68
2023-01-29T10:00:16.382Z,14.27
2023-01-29T10:02:58.202Z,13.48
2023-01-29T10:05:43.282Z,13.35
2023-01-29T10:08:30.836Z,15.63
2023-01-29T10:11:32.958Z,13.35
2023-01-29T10:14:59.444Z,12.88
2023-01-29T10:17:52.596Z,13.93
2023-01-29T10:21:14.504Z,12.02
2023-01-29T10:23:47.469Z,13.13
2023-01-29T10:26:14.080Z,12.25
2023-01-29T10:28:48.233Z,12.20
2023-01-29T10:31:38.499Z,12.38
2023-01-29T10:34:24.726Z,12.80
2023-01-29T10:36:51.415Z,14.23
2023-01-29T10:39:20.457Z,12.32
2023-01-29T10:42:12.746Z,14.95
2023-01-29T10:45:27.548Z,14.63
2023-01-29T10:48:04.287Z,13.38
2023-01-29T10:50:49.442Z,14.65
2023-01-29T10:53:40.882Z,12.02
2023-01-29T10:56:51.283Z,15.32
2023-01-29T10:59:49.394Z,15.60
2023-01-29T11:02:19.696Z,15.30
2023-01-29T11:04:46.207Z,15.98
2023-01-29T11:07:14.844Z,15.13
2023-01-29T11:09:55.004Z,13.23
2023-01-29T11:12:27.168Z,14.45
2023-01-29T11:14:59.630Z,13.38
2023-01-29T11:17:26.381Z,14.90
2023-01-29T11:19:55.699Z,15.52
2023-01-29T11:22:24.955Z,13.77
2023-01-29T11:25:17.230Z,15.52
2023-01-29T11:27:47.037Z,45.17
2023-01-29T11:30:41.247Z,40.90
2023-01-29T11:33:21.949Z,40.00
2023-01-29T11:35:48.337Z,15.65
2023-01-29T11:38:28.969Z,18.05
2023-01-29T11:41:18.410Z,16.35
2023-01-29T11:43:47.326Z,16.63
2023-01-29T11:46:15.785Z,16.85
2023-01-29T11:48:50.145Z,20.42
2023-01-29T11:51:29.356Z,17.65
2023-01-29T11:54:02.089Z,14.20
2023-01-29T11:56:49.025Z,14.23
2023-01-29T11:59:27.197Z,16.05
2023-01-29T12:01:54.495Z,15.07
2023-01-29T12:04:25.474Z,14.88
2023-01-29T12:06:53.916Z,15.68
2023-01-29T12:09:24.191Z,16.52
2023-01-29T12:11:52.486Z,15.52
2023-01-29T12:14:33.999Z,17.23
2023-01-29T12:17:16.144Z,16.13
2023-01-29T12:19:49.615Z,14.02
2023-01-29T12:22:42.782Z,16.77
2023-01-29T12:25:24.927Z,15.73
2023-01-29T12:27:59.511Z,15.77
2023-01-29T12:30:48.165Z,14.38
2023-01-29T12:33:23.164Z,15.02
2023-01-29T12:36:21.494Z,15.15
2023-01-29T12:38:47.959Z,13.73
2023-01-29T12:41:21.512Z,16.08
2023-01-29T12:43:59.257Z,16.33
2023-01-29T12:46:30.224Z,17.13
2023-01-29T12:49:01.441Z,15.95
2023-01-29T12:51:40.920Z,15.60
2023-01-29T12:54:13.678Z,15.35
2023-01-29T12:56:46.989Z,16.70
2023-01-29T12:59:36.323Z,18.55
2023-01-29T13:02:16.807Z,17.90
2023-01-29T13:05:06.083Z,15.77
2023-01-29T13:07:41.310Z,14.05
2023-01-29T13:10:14.970Z,13.73
2023-01-29T13:13:07.974Z,14.10
2023-01-29T13:15:38.392Z,13.73
2023-01-29T13:18:32.920Z,16.42
2023-01-29T13:21:00.864Z,14.75
2023-01-29T13:23:36.172Z,14.40
2023-01-29T13:26:03.753Z,15.10
2023-01-29T13:28:30.590Z,13.93
2023-01-29T13:31:12.146Z,13.70
2023-01-29T13:33:40.568Z,13.15
2023-01-29T13:36:20.049Z,15.95
2023-01-29T13:38:56.176Z,13.52
2023-01-29T13:41:32.679Z,37.17
2023-01-29T13:43:59.396Z,17.73
2023-01-29T13:46:25.834Z,14.82
2023-01-29T13:48:55.118Z,13.57
2023-01-29T13:51:28.312Z,31.95
2023-01-29T13:54:03.769Z,16.58
2023-01-29T13:56:32.877Z,11.65
2023-01-29T13:59:05.183Z,10.73
2023-01-29T14:02:05.052Z,10.77
2023-01-29T14:04:33.045Z,12.38
2023-01-29T14:07:03.032Z,12.02
2023-01-29T14:09:38.361Z,11.60
2023-01-29T14:12:32.567Z,11.93
2023-01-29T14:15:06.314Z,11.48
2023-01-29T14:17:32.756Z,10.50
2023-01-29T14:20:19.056Z,11.98
2023-01-29T14:22:58.405Z,12.48
2023-01-29T14:25:30.966Z,11.27
2023-01-29T14:28:00.256Z,10.45
2023-01-29T14:30:31.541Z,10.55
2023-01-29T14:32:58.568Z,12.90
2023-01-29T14:35:27.860Z,10.65
2023-01-29T14:38:00.176Z,10.55
2023-01-29T14:40:29.676Z,11.70
2023-01-29T14:45:39.005Z,10.77
2023-01-29T14:48:11.333Z,10.32
2023-01-29T14:50:45.696Z,9.68
2023-01-29T14:53:19.626Z,10.77
2023-01-29T14:56:10.388Z,10.38
2023-01-29T14:58:47.653Z,10.73
2023-01-29T15:01:23.184Z,9.77
2023-01-29T15:04:20.824Z,10.57
2023-01-29T15:06:52.998Z,9.85
2023-01-29T15:09:36.347Z,9.95
2023-01-29T15:12:05.923Z,9.73
2023-01-29T15:14:46.847Z,10.73
2023-01-29T15:17:17.363Z,10.57
2023-01-29T15:19:48.596Z,10.32
2023-01-29T15:22:19.007Z,10.50
2023-01-29T15:24:48.280Z,11.43
2023-01-29T15:27:20.064Z,10.50
2023-01-29T15:30:02.555Z,9.93
2023-01-29T15:35:09.011Z,9.68
2023-01-29T15:37:36.482Z,10.13
2023-01-29T15:40:15.304Z,10.27
2023-01-29T15:42:46.574Z,11.90
2023-01-29T15:45:23.052Z,11.05
2023-01-29T15:47:50.581Z,11.57
2023-01-29T15:50:17.489Z,11.02
2023-01-29T15:52:50.870Z,10.48
2023-01-29T15:55:20.762Z,10.98
2023-01-29T15:57:47.192Z,11.98
2023-01-29T16:00:27.278Z,11.98
2023-01-29T16:02:55.051Z,12.18
2023-01-29T16:05:27.168Z,13.10
2023-01-29T16:07:55.590Z,14.02
2023-01-29T16:10:26.547Z,12.88
2023-01-29T16:12:58.831Z,13.25
2023-01-29T16:17:51.893Z,13.65
2023-01-29T16:20:37.248Z,14.93
2023-01-29T16:23:05.676Z,14.13
2023-01-29T16:25:34.605Z,15.85
2023-01-29T16:28:05.419Z,15.48
2023-01-29T16:30:31.966Z,14.57
2023-01-29T16:33:04.052Z,16.52
2023-01-29T16:35:30.906Z,15.30
2023-01-29T16:38:03.225Z,15.35
2023-01-29T16:40:35.348Z,15.50
2023-01-29T16:43:42.127Z,15.20
2023-01-29T16:46:24.095Z,14.98
2023-01-29T16:48:50.926Z,16.23
2023-01-29T16:51:36.249Z,22.92
2023-01-29T16:54:18.326Z,19.00
2023-01-29T16:56:50.034Z,18.48
2023-01-29T16:59:32.276Z,21.70
2023-01-29T17:01:59.767Z,19.17
2023-01-29T17:04:26.144Z,26.10
2023-01-29T17:06:59.281Z,17.90
2023-01-29T17:09:34.194Z,19.02
2023-01-29T17:12:03.592Z,50.85
2023-01-29T17:14:36.269Z,19.45
2023-01-29T17:17:14.246Z,18.13
2023-01-29T17:19:40.600Z,18.55
2023-01-29T17:22:08.647Z,16.75
2023-01-29T17:24:35.129Z,15.63
2023-01-29T17:27:01.932Z,16.17
2023-01-29T17:29:31.838Z,16.42
2023-01-29T17:32:01.255Z,14.77
2023-01-29T17:34:32.946Z,15.45
2023-01-29T17:36:59.376Z,16.25
2023-01-29T17:39:25.833Z,15.20
2023-01-29T17:41:54.556Z,16.67
2023-01-29T17:44:21.572Z,13.15
2023-01-29T17:46:48.556Z,19.35
2023-01-29T17:49:28.283Z,17.98
2023-01-29T17:51:57.203Z,18.65
2023-01-29T17:54:24.167Z,14.90
2023-01-29T17:56:51.668Z,17.40
2023-01-29T17:59:20.773Z,14.55
2023-01-29T18:01:48.400Z,14.05
2023-01-29T18:04:14.848Z,12.85
2023-01-29T18:06:43.021Z,16.85
2023-01-29T18:09:17.044Z,13.40
2023-01-29T18:11:43.384Z,65.28
2023-01-29T18:14:14.035Z,79.15
2023-01-29T18:16:42.792Z,83.10
2023-01-29T18:19:15.378Z,110.05
2023-01-29T18:21:41.779Z,19.77
2023-01-29T18:24:08.312Z,410.65
2023-01-29T18:26:35.810Z,124.32
2023-01-29T18:29:02.492Z,151.98
2023-01-29T18:31:29.125Z,442.92
2023-01-29T18:33:55.622Z,373.15
2023-01-29T18:36:22.315Z,306.38
2023-01-29T18:38:48.828Z,165.50
2023-01-29T18:41:15.252Z,182.57
2023-01-29T18:43:44.606Z,121.35
2023-01-29T18:46:10.967Z,104.70
2023-01-29T18:48:37.440Z,272.45
2023-01-29T18:51:04.018Z,189.80
2023-01-29T18:53:30.428Z,130.27
2023-01-29T18:56:04.208Z,22.75
2023-01-29T18:58:38.044Z,72.93
2023-01-29T19:01:09.423Z,18.33
2023-01-29T19:03:36.887Z,258.40
2023-01-29T19:06:04.878Z,36.92
2023-01-29T19:08:31.967Z,189.40
2023-01-29T19:11:02.059Z,195.93
2023-01-29T19:13:29.696Z,323.73
2023-01-29T19:15:56.059Z,474.90
2023-01-29T19:18:22.473Z,175.70
2023-01-29T19:20:50.085Z,390.50
2023-01-29T19:23:16.457Z,425.60
2023-01-29T19:25:43.422Z,100.07
2023-01-29T19:28:09.780Z,136.00
2023-01-29T19:30:36.200Z,238.80
2023-01-29T19:33:02.734Z,353.55
2023-01-29T19:35:29.172Z,386.48
2023-01-29T19:37:55.773Z,124.70
2023-01-29T19:40:22.393Z,327.90
2023-01-29T19:42:48.775Z,221.25
2023-01-29T19:45:15.463Z,84.45
2023-01-29T19:47:43.099Z,190.45
2023-01-29T19:50:11.064Z,95.53
2023-01-29T19:52:52.805Z,58.80
2023-01-29T19:55:21.010Z,28.73
2023-01-29T19:57:47.861Z,63.35
2023-01-29T20:00:15.412Z,73.93
2023-01-29T20:02:41.800Z,40.05
2023-01-29T20:05:11.148Z,18.20
2023-01-29T20:07:37.504Z,21.13
2023-01-29T20:10:04.051Z,165.25
2023-01-29T20:12:31.166Z,192.00
2023-01-29T20:14:57.548Z,42.75
2023-01-29T20:17:23.947Z,140.80
2023-01-29T20:19:50.343Z,221.63
2023-01-29T20:22:16.687Z,134.32
2023-01-29T20:24:43.269Z,315.50
2023-01-29T20:27:11.116Z,83.90
2023-01-29T20:29:38.489Z,162.20
2023-01-29T20:32:07.855Z,71.15
2023-01-29T20:34:35.382Z,150.73
2023-01-29T20:37:01.970Z,44.22
2023-01-29T20:39:28.474Z,247.77
2023-01-29T20:41:57.047Z,98.25
2023-01-29T20:44:24.257Z,215.82
2023-01-29T20:46:50.973Z,167.50
2023-01-29T20:49:17.987Z,130.15
2023-01-29T20:51:45.394Z,160.02
2023-01-29T20:54:14.409Z,39.22
2023-01-29T20:56:48.218Z,24.42
2023-01-29T20:59:15.265Z,22.48
2023-01-29T21:01:42.508Z,23.15
2023-01-29T21:04:09.135Z,23.08
2023-01-29T21:06:35.500Z,23.23
2023-01-29T21:09:01.845Z,21.83
2023-01-29T21:11:28.539Z,159.45
2023-01-29T21:13:57.615Z,174.00
2023-01-29T21:16:26.040Z,263.33
2023-01-29T21:18:56.233Z,187.35
2023-01-29T21:21:22.693Z,233.20
2023-01-29T21:23:49.040Z,126.95
2023-01-29T21:26:15.459Z,159.20
2023-01-29T21:28:45.362Z,186.60
2023-01-29T21:31:14.390Z,39.20
2023-01-29T21:33:40.790Z,43.63
2023-01-29T21:36:08.375Z,37.50
2023-01-29T21:38:34.840Z,22.15
2023-01-29T21:41:04.348Z,20.98
2023-01-29T21:43:30.793Z,20.20
2023-01-29T21:45:59.558Z,22.70
2023-01-29T21:48:26.768Z,21.70
2023-01-29T21:50:53.718Z,20.40
2023-01-29T21:53:20.370Z,24.55
2023-01-29T21:55:47.303Z,22.27
2023-01-29T21:58:14.672Z,21.63
2023-01-29T22:00:41.239Z,23.13
2023-01-29T22:03:07.665Z,22.08
2023-01-29T22:05:34.690Z,24.15
2023-01-29T22:08:01.110Z,21.52
2023-01-29T22:10:28.449Z,21.58
2023-01-29T22:12:54.783Z,21.75
2023-01-29T22:15:23.607Z,21.30
2023-01-29T22:17:50.345Z,22.60
2023-01-29T22:20:18.777Z,21.05
2023-01-29T22:22:45.711Z,22.25
2023-01-29T22:25:12.194Z,23.00
2023-01-29T22:27:38.643Z,21.50
2023-01-29T22:30:06.125Z,20.67
2023-01-29T22:32:32.836Z,20.35
2023-01-29T22:34:59.256Z,21.00
2023-01-29T22:37:25.562Z,20.30
2023-01-29T22:39:51.902Z,20.60
2023-01-29T22:42:20.491Z,21.95
2023-01-29T22:44:48.048Z,21.17
2023-01-29T22:47:14.354Z,21.83
2023-01-29T22:49:40.723Z,20.25
2023-01-29T22:52:09.983Z,22.02
2023-01-29T22:54:38.785Z,22.00
2023-01-29T22:57:06.040Z,20.00
2023-01-29T22:59:33.001Z,20.80
2023-01-29T23:01:59.369Z,21.13
2023-01-29T23:04:25.841Z,21.13
2023-01-29T23:06:52.254Z,21.10
2023-01-29T23:09:18.604Z,20.95
2023-01-29T23:11:44.973Z,20.77
2023-01-29T23:14:11.375Z,22.25
2023-01-29T23:16:37.787Z,22.20
2023-01-29T23:19:04.163Z,20.15
2023-01-29T23:21:30.559Z,20.20
2023-01-29T23:23:58.593Z,19.67
2023-01-29T23:26:44.386Z,20.10
2023-01-29T23:29:12.275Z,19.95
2023-01-29T23:31:39.346Z,20.67
2023-01-29T23:34:05.751Z,20.42
2023-01-29T23:36:32.200Z,21.38
2023-01-29T23:38:58.557Z,21.05
2023-01-29T23:41:24.908Z,20.58
2023-01-29T23:43:52.733Z,20.33
2023-01-29T23:46:19.503Z,20.63
2023-01-29T23:48:45.910Z,22.45
2023-01-29T23:51:12.364Z,21.65
2023-01-29T23:53:38.798Z,20.83
2023-01-29T23:56:06.162Z,22.05
2023-01-29T23:58:35.452Z,20.92
